»·PEaware :: N582VB KSMO-KSMO

N582VB :: KSMO-KSMO

FLIGHT INFORMATION

Flight Status: Arrived
Operator: Privately registered:
United States
More flights under this callsign
Pilot: Corentin D. (28157)
Aircraft: CIRRUS VISIONJET
(SF50)
More flights by this aircraft type
Origin: KSMO Santa Monica Mun
United States
Destination: KSMO Santa Monica Mun
United States
More flights between these airports :: More routes between these airports
Route: +SFRA
File this flight plan on PilotEdge
Remarks:
Altitude:
(Current/Filed)
0ft
Speed:
(Current/Filed)
0kts
Departed: 30-Mar-20 07:21 AM
Arrived: 30-Mar-20 08:14 AM
Distance/Time
Traveled:
0nm/0:53
Distance/Time
To Go:
Arrived

Flight Plot

Page will automatically refresh every two minutes.

Flight plan parsing failed; only flown route is shown


Map Options




Map Legend


Flown Route
Filed Route
Departure Airport
Arrival Airport
Navaid (VOR, NDB)
Fix

Horizontal Profiles

Position Reports

Time Latitude Longitude Heading Altitude Ground
Speed
30-Mar-20 07:16 34.020066 -118.447693 136 155ft 0kts
30-Mar-20 07:17 34.019523 -118.447678 140 154ft 0kts
30-Mar-20 07:18 34.019523 -118.447678 140 154ft 0kts
30-Mar-20 07:19 34.019523 -118.447678 140 154ft 0kts
30-Mar-20 07:20 34.014492 -118.452212 217 383ft 73kts
30-Mar-20 07:21 34.007785 -118.448634 48 1662ft 86kts
30-Mar-20 07:22 34.020229 -118.446506 244 2967ft 112kts
30-Mar-20 07:23 33.998085 -118.443929 127 3507ft 117kts
30-Mar-20 07:24 33.972148 -118.417956 140 3551ft 122kts
30-Mar-20 07:25 33.944311 -118.398910 152 3514ft 113kts
30-Mar-20 07:26 33.914145 -118.384568 173 3523ft 118kts
30-Mar-20 07:27 33.881468 -118.384950 180 3749ft 130kts
30-Mar-20 07:28 33.846934 -118.388174 181 3979ft 129kts
30-Mar-20 07:29 33.810209 -118.388681 181 3775ft 136kts
30-Mar-20 07:30 33.774647 -118.389372 176 3348ft 118kts
30-Mar-20 07:31 33.744308 -118.380789 148 3220ft 114kts
30-Mar-20 07:32 33.718255 -118.361459 145 3327ft 113kts
30-Mar-20 07:33 33.695695 -118.336728 132 3453ft 109kts
30-Mar-20 07:34 33.673362 -118.308330 132 3463ft 121kts
30-Mar-20 07:35 33.656889 -118.287223 132 3484ft 112kts
30-Mar-20 07:36 33.630341 -118.264377 146 3500ft 120kts
30-Mar-20 07:37 33.601151 -118.241454 146 3502ft 135kts
30-Mar-20 07:38 33.569503 -118.215569 156 3488ft 139kts
30-Mar-20 07:39 33.540147 -118.239453 219 3550ft 135kts
30-Mar-20 07:40 33.508547 -118.263973 214 3665ft 136kts
30-Mar-20 07:41 33.478587 -118.291394 226 3468ft 133kts
30-Mar-20 07:42 33.459691 -118.320796 235 3120ft 109kts
30-Mar-20 07:43 33.442357 -118.352028 234 2734ft 122kts
30-Mar-20 07:44 33.425066 -118.381572 237 2206ft 100kts
30-Mar-20 07:45 33.411346 -118.404959 233 1668ft 73kts
30-Mar-20 07:46 33.404466 -118.416700 233 1546ft 8kts
30-Mar-20 07:47 33.402236 -118.419761 261 1551ft 5kts
30-Mar-20 07:48 33.407890 -118.411102 52 1800ft 87kts
30-Mar-20 07:49 33.430906 -118.387892 28 2448ft 120kts
30-Mar-20 07:50 33.463693 -118.379791 10 3166ft 121kts
30-Mar-20 07:51 33.496200 -118.372214 11 3935ft 125kts
30-Mar-20 07:52 33.531054 -118.364145 10 4438ft 124kts
30-Mar-20 07:53 33.567814 -118.355661 10 4500ft 139kts
30-Mar-20 07:54 33.606506 -118.353305 1 4499ft 139kts
30-Mar-20 07:55 33.645133 -118.352108 352 4496ft 139kts
30-Mar-20 07:56 33.683804 -118.355355 356 4500ft 139kts
30-Mar-20 07:57 33.722586 -118.357917 356 4499ft 139kts
30-Mar-20 07:58 33.761343 -118.360456 356 4499ft 139kts
30-Mar-20 07:59 33.799850 -118.365890 351 4499ft 139kts
30-Mar-20 08:00 33.838116 -118.372812 349 4499ft 139kts
30-Mar-20 08:01 33.876347 -118.380980 349 4499ft 139kts
30-Mar-20 08:02 33.913911 -118.388991 349 4499ft 139kts
30-Mar-20 08:03 33.952040 -118.397762 342 4493ft 140kts
30-Mar-20 08:04 33.983733 -118.421450 313 4072ft 135kts
30-Mar-20 08:05 34.005285 -118.457009 296 3515ft 131kts
30-Mar-20 08:06 34.017495 -118.496905 277 3053ft 124kts
30-Mar-20 08:07 34.021110 -118.538433 274 2760ft 116kts
30-Mar-20 08:08 34.035696 -118.544062 93 2365ft 124kts
30-Mar-20 08:09 34.025676 -118.509123 110 1404ft 103kts
30-Mar-20 08:10 34.021187 -118.476027 74 1079ft 97kts
30-Mar-20 08:11 34.034794 -118.449533 50 1065ft 90kts
30-Mar-20 08:12 34.024251 -118.440981 239 560ft 92kts
30-Mar-20 08:13 34.014758 -118.452586 244 133ft 18kts
30-Mar-20 08:14 34.014915 -118.453201 314 132ft 0kts
30-Mar-20 08:15 34.014915 -118.453201 314 132ft 0kts
30-Mar-20 08:16 34.015206 -118.453164 44 133ft 6kts
30-Mar-20 08:17 34.017652 -118.450278 45 147ft 9kts
30-Mar-20 08:18 34.018891 -118.449443 41 150ft 0kts

Navigation Log

Ident Type
Flight plan parsing failed, navigation log unavailable